Pine City, Minnesota
Current Conditions -  °F | °C
As of 12:35 PM on Friday 28 Nov 2014 (Local Time) from KROS Reporting Station
Overcast Overcast  
Wind Chill:   Ceiling: 1800
Heat Index: 17°   Visibility: 10mi
Dew Point: 11°   Wind: 6mph
Humidity: 75%   Direction: 120°ESE
Pressure: 29.91"   Gusts: NA
Location:  45.83°N, 92.97°W
Report Text: KROS 281835Z AUTO 12005KT 10SM OVC018 M08/M12 A2991 RMK AO2 T10811118
Loading
Personal Weather Stations






























Interactive Weather Map New forecast layout! Learn more

10-Day Weather Forecast

Advertisements
Track Severe Weather on mobile